KVOK/VOK METAR and TAF weather

Enter ICAO airport designator
Station Type Date Time Source
KVOK METAR 2019/08/24 07:56 UTC NOAA

KVOK 240756Z AUTO 00000KT 10SM CLR 08/08 A3029 RMK AO2 SLP262 T00830083 PWINO TSNO $


Station Type Date Time Source
KVOK Decoded METAR 2019/08/24 07:56 UTC NOAA

Station name not available
Aug 24, 2019 - 03:56 AM EDT / 2019.08.24 0756 UTC
Wind: Calm:0
Visibility: 10 mile(s):0
Sky conditions: clear
Temperature: 46.9 F (8.3 C)
Dew Point: 46.9 F (8.3 C)
Relative Humidity: 100%
Pressure (altimeter): 30.29 in. Hg (1025 hPa)
ob: KVOK 240756Z AUTO 00000KT 10SM CLR 08/08 A3029 RMK AO2 SLP262 T00830083 PWINO TSNO
cycle: 8

Station Type Date Time Source
KVOK TAF 2019/08/23 23:39 UTC NOAA

TAF
AMD KVOK 232323Z 2323/2423 09009KT 9999 SCT040 BKN050 QNH3020INS
TEMPO 2409/2412 4800 BR
BECMG 2415/2416 13012KT 9999 FEW030 SCT040 QNH3017INS TX21/2323Z TN08/2411Z LAST NO
AMDS AFT 2323 NEXT 2409

Example: see airport list